ケアンズ の空港の天気 - METARとTAF

ケアンズ国際空港 ( YBCS / CNS ) - オーストラリア クイーンズランド州ケアンズ
飛行場実況気象(Metar)
観測時間01/23 15:30 AEST (01/23 05:30 UTC)
風向・風速南 5m/s
視程3000m
天気現象弱いしゅう雨
少しの雲 雲底高度 150m
全天の4割程度の雲 雲底高度 700m
全天を覆う雲 雲底高度 1070m
気温26℃
湿度89%
気圧1005hPa
METARYBCS 230530Z 18010KT 110V190 3000 -SHRA FEW005 SCT023 OVC035 26/24 Q1005 FM0530 14012KT 9999 -SHRA SCT025 BKN050 INTER 0530/0830 3000 SHRA FEW008 BKN018
過去の天気等 Google飛行場航空写真 Wunderground天気予報

過去48時間のMETAR

飛行場予報(TAF)
発表時間: 1/23 14:15 AEST (1/23 04:15 UTC)
予報対象時間: 23日14時 AEST ~ 24日10時 AEST
風向・風速南東 6m/s
視程10km以上
天気現象弱いしゅう雨
全天の4割程度の雲 雲底高度 760m
全天の8割程度の雲 雲底高度 1,520m
23日18時 AEST から
風向・風速南 4m/s
視程10km以上
天気現象弱いしゅう雨
全天の4割程度の雲 雲底高度 700m
全天の8割程度の雲 雲底高度 1,220m
TAF AMD YBCS 230415Z 2304/2324 14012KT 9999 -SHRA SCT025 BKN050
FM230800 17008KT 9999 -SHRA SCT023 BKN040 INTER 2304/2324 3000 SHRA FEW008 BKN018